createdAt,value
2023-02-07T00:00:33.810Z,1016.52
2023-02-07T00:01:04.661Z,1016.73
2023-02-07T00:01:37.253Z,1016.73
2023-02-07T00:02:08.804Z,1016.73
2023-02-07T00:02:39.648Z,1016.73
2023-02-07T00:03:12.817Z,1016.63
2023-02-07T00:03:37.999Z,1016.52
2023-02-07T00:03:59.660Z,1016.52
2023-02-07T00:04:32.171Z,1016.52
2023-02-07T00:05:04.993Z,1016.52
2023-02-07T00:05:36.184Z,1016.52
2023-02-07T00:05:53.164Z,1016.52
2023-02-07T00:06:24.268Z,1016.52
2023-02-07T00:06:45.109Z,1016.42
2023-02-07T00:07:12.963Z,1016.42
2023-02-07T00:07:37.575Z,1016.73
2023-02-07T00:08:00.676Z,1016.73
2023-02-07T00:08:32.334Z,1016.73
2023-02-07T00:09:03.559Z,1016.63
2023-02-07T00:09:35.842Z,1016.63
2023-02-07T00:09:53.059Z,1016.83
2023-02-07T00:10:24.899Z,1016.83
2023-02-07T00:10:45.835Z,1016.63
2023-02-07T00:11:12.408Z,1016.63
2023-02-07T00:11:38.433Z,1016.52
2023-02-07T00:12:01.094Z,1016.52
2023-02-07T00:12:32.737Z,1016.52
2023-02-07T00:13:06.006Z,1016.73
2023-02-07T00:13:36.373Z,1016.73
2023-02-07T00:14:07.901Z,1016.83
2023-02-07T00:14:39.326Z,1016.83
2023-02-07T00:15:15.207Z,1016.63
2023-02-07T00:15:39.411Z,1016.83
2023-02-07T00:16:00.371Z,1016.83
2023-02-07T00:16:33.721Z,1016.83
2023-02-07T00:17:03.890Z,1016.63
2023-02-07T00:17:36.175Z,1016.63
2023-02-07T00:18:07.926Z,1016.63
2023-02-07T00:18:40.357Z,1016.63
2023-02-07T00:19:13.768Z,1016.73
2023-02-07T00:19:37.639Z,1016.52
2023-02-07T00:19:59.425Z,1016.52
2023-02-07T00:20:34.448Z,1016.52
2023-02-07T00:21:03.974Z,1016.93
2023-02-07T00:21:36.636Z,1016.93
2023-02-07T00:22:07.847Z,1016.73
2023-02-07T00:22:45.076Z,1016.42
2023-02-07T00:23:12.928Z,1016.42
2023-02-07T00:23:37.662Z,1016.73
2023-02-07T00:23:59.957Z,1016.73
2023-02-07T00:24:32.617Z,1016.73
2023-02-07T00:25:04.962Z,1016.73
2023-02-07T00:25:36.718Z,1016.73
2023-02-07T00:26:07.415Z,1016.63
2023-02-07T00:26:39.499Z,1016.63
2023-02-07T00:27:12.240Z,1016.83
2023-02-07T00:27:37.598Z,1016.32
2023-02-07T00:28:00.357Z,1016.32
2023-02-07T00:28:32.800Z,1016.32
2023-02-07T00:29:03.844Z,1016.63
2023-02-07T00:29:36.676Z,1016.63
2023-02-07T00:30:09.893Z,1016.52
2023-02-07T00:30:39.467Z,1016.52
2023-02-07T00:31:12.457Z,1016.63
2023-02-07T00:31:38.057Z,1016.42
2023-02-07T00:31:59.940Z,1016.42
2023-02-07T00:32:32.710Z,1016.42
2023-02-07T00:33:03.720Z,1016.42
2023-02-07T00:33:36.279Z,1016.42
2023-02-07T00:33:53.332Z,1016.42
2023-02-07T00:34:24.236Z,1016.42
2023-02-07T00:34:44.996Z,1016.52
2023-02-07T00:35:13.128Z,1016.52
2023-02-07T00:35:39.373Z,1016.52
2023-02-07T00:36:01.475Z,1016.52
2023-02-07T00:36:32.504Z,1016.52
2023-02-07T00:37:03.573Z,1016.52
2023-02-07T00:37:35.677Z,1016.52
2023-02-07T00:37:52.500Z,1016.52
2023-02-07T00:38:24.620Z,1016.52
2023-02-07T00:38:45.281Z,1016.52
2023-02-07T00:39:12.894Z,1016.52
2023-02-07T00:39:38.331Z,1016.83
2023-02-07T00:40:02.156Z,1016.83
2023-02-07T00:40:33.020Z,1016.83
2023-02-07T00:41:03.510Z,1016.32
2023-02-07T00:41:36.512Z,1016.32
2023-02-07T00:42:08.697Z,1016.42
2023-02-07T00:42:40.357Z,1016.42
2023-02-07T00:43:21.467Z,1016.63
2023-02-07T00:43:38.729Z,1016.52
2023-02-07T00:43:59.943Z,1016.52
2023-02-07T00:44:33.805Z,1016.52
2023-02-07T00:45:05.814Z,1016.52
2023-02-07T00:45:35.942Z,1016.52
2023-02-07T00:45:53.745Z,1016.73
2023-02-07T00:46:24.054Z,1016.73
2023-02-07T00:46:46.483Z,1016.73
2023-02-07T00:47:14.079Z,1016.73
2023-02-07T00:47:38.408Z,1016.73
2023-02-07T00:47:59.852Z,1016.73
2023-02-07T00:48:33.056Z,1016.73
2023-02-07T00:49:04.117Z,1016.63
2023-02-07T00:49:36.195Z,1016.63
2023-02-07T00:49:52.457Z,1016.73
2023-02-07T00:50:25.671Z,1016.73
2023-02-07T00:50:45.154Z,1016.73
2023-02-07T00:51:12.944Z,1016.73
2023-02-07T00:51:37.807Z,1016.63
2023-02-07T00:52:00.642Z,1016.63
2023-02-07T00:52:33.069Z,1016.63
2023-02-07T00:53:04.970Z,1016.52
2023-02-07T00:53:36.943Z,1016.52
2023-02-07T00:54:07.395Z,1016.83
2023-02-07T00:54:40.027Z,1016.83
2023-02-07T00:55:12.685Z,1016.42
2023-02-07T00:55:43.369Z,1016.63
2023-02-07T00:56:18.017Z,1016.63
2023-02-07T00:56:38.390Z,1016.63
2023-02-07T00:57:04.014Z,1016.63
2023-02-07T00:57:36.735Z,1016.63
2023-02-07T00:57:52.571Z,1016.73
2023-02-07T00:58:24.140Z,1016.73
2023-02-07T00:58:45.340Z,1016.63
2023-02-07T00:59:12.681Z,1016.63
2023-02-07T00:59:38.484Z,1016.52
2023-02-07T01:00:00.052Z,1016.52
2023-02-07T01:00:34.183Z,1016.52
2023-02-07T01:01:04.595Z,1016.63
2023-02-07T01:01:36.388Z,1016.63
2023-02-07T01:02:08.717Z,1016.63
2023-02-07T01:02:39.994Z,1016.63
2023-02-07T01:03:12.442Z,1016.42
2023-02-07T01:03:38.108Z,1016.63
2023-02-07T01:03:59.294Z,1016.63
2023-02-07T01:04:32.197Z,1016.63
2023-02-07T01:05:04.700Z,1016.52
2023-02-07T01:05:35.724Z,1016.52
2023-02-07T01:05:52.781Z,1016.42
2023-02-07T01:06:23.629Z,1016.42
2023-02-07T01:06:44.974Z,1016.32
2023-02-07T01:07:12.719Z,1016.32
2023-02-07T01:07:37.380Z,1016.52
2023-02-07T01:08:01.222Z,1016.52
2023-02-07T01:08:32.360Z,1016.52
2023-02-07T01:09:03.987Z,1016.42
2023-02-07T01:09:36.264Z,1016.42
2023-02-07T01:10:09.059Z,1016.73
2023-02-07T01:10:41.662Z,1016.73
2023-02-07T01:11:13.096Z,1016.52
2023-02-07T01:11:39.799Z,1016.42
2023-02-07T01:12:00.428Z,1016.42
2023-02-07T01:12:33.542Z,1016.42
2023-02-07T01:13:03.893Z,1016.63
2023-02-07T01:13:35.578Z,1016.63
2023-02-07T01:14:07.542Z,1016.52
2023-02-07T01:14:39.647Z,1016.52
2023-02-07T01:15:15.708Z,1016.73
2023-02-07T01:15:38.775Z,1016.73
2023-02-07T01:16:00.382Z,1016.73
2023-02-07T01:16:33.937Z,1016.73
2023-02-07T01:17:03.369Z,1016.63
2023-02-07T01:17:35.268Z,1016.63
2023-02-07T01:17:52.155Z,1016.63
2023-02-07T01:18:23.815Z,1016.63
2023-02-07T01:18:44.657Z,1016.83
2023-02-07T01:19:12.054Z,1016.83
2023-02-07T01:19:37.110Z,1016.73
2023-02-07T01:19:59.845Z,1016.73
2023-02-07T01:20:33.212Z,1016.73
2023-02-07T01:21:04.672Z,1016.52
2023-02-07T01:21:37.060Z,1016.52
2023-02-07T01:22:07.516Z,1016.52
2023-02-07T01:22:39.668Z,1016.52
2023-02-07T01:23:12.371Z,1016.52
2023-02-07T01:23:37.900Z,1016.52
2023-02-07T01:24:00.678Z,1016.52
2023-02-07T01:24:32.816Z,1016.52
2023-02-07T01:25:05.187Z,1016.52
2023-02-07T01:25:37.199Z,1016.52
2023-02-07T01:26:07.428Z,1016.73
2023-02-07T01:26:39.668Z,1016.73
2023-02-07T01:27:12.413Z,1016.63
2023-02-07T01:27:38.187Z,1016.42
2023-02-07T01:28:00.173Z,1016.42
2023-02-07T01:28:32.828Z,1016.42
2023-02-07T01:29:03.851Z,1016.63
2023-02-07T01:29:35.941Z,1016.63
2023-02-07T01:30:10.240Z,1016.42
2023-02-07T01:30:40.005Z,1016.42
2023-02-07T01:31:12.397Z,1016.32
2023-02-07T01:31:37.877Z,1016.32
2023-02-07T01:32:00.023Z,1016.32
2023-02-07T01:32:32.677Z,1016.32
2023-02-07T01:33:04.791Z,1016.12
2023-02-07T01:33:36.180Z,1016.12
2023-02-07T01:34:07.734Z,1016.42
2023-02-07T01:34:39.832Z,1016.42
2023-02-07T01:35:13.265Z,1016.32
2023-02-07T01:35:38.360Z,1016.22
2023-02-07T01:36:01.108Z,1016.22
2023-02-07T01:36:33.714Z,1016.22
2023-02-07T01:37:04.362Z,1016.42
2023-02-07T01:37:35.685Z,1016.42
2023-02-07T01:37:52.554Z,1016.32
2023-02-07T01:38:24.449Z,1016.32
2023-02-07T01:38:45.328Z,1016.63
2023-02-07T01:39:12.703Z,1016.63
2023-02-07T01:39:38.696Z,1016.52
2023-02-07T01:40:01.383Z,1016.52
2023-02-07T01:40:33.828Z,1016.52
2023-02-07T01:41:03.923Z,1016.22
2023-02-07T01:41:35.948Z,1016.22
2023-02-07T01:41:53.229Z,1016.32
2023-02-07T01:42:24.046Z,1016.32
2023-02-07T01:42:45.099Z,1016.22
2023-02-07T01:43:12.952Z,1016.22
2023-02-07T01:43:38.280Z,1016.32
2023-02-07T01:43:59.429Z,1016.32
2023-02-07T01:44:32.086Z,1016.32
2023-02-07T01:45:05.444Z,1016.32
2023-02-07T01:45:36.401Z,1016.32
2023-02-07T01:46:07.404Z,1016.22
2023-02-07T01:46:39.346Z,1016.22
2023-02-07T01:47:12.196Z,1016.22
2023-02-07T01:47:37.143Z,1016.22
2023-02-07T01:47:59.337Z,1016.22
2023-02-07T01:48:32.083Z,1016.22
2023-02-07T01:49:03.364Z,1016.22
2023-02-07T01:49:35.318Z,1016.22
2023-02-07T01:49:52.249Z,1016.52
2023-02-07T01:50:24.129Z,1016.52
2023-02-07T01:50:44.778Z,1016.42
2023-02-07T01:51:12.573Z,1016.42
2023-02-07T01:51:37.307Z,1016.52
2023-02-07T01:51:59.368Z,1016.52
2023-02-07T01:52:32.262Z,1016.52
2023-02-07T01:53:03.500Z,1016.52
2023-02-07T01:53:35.410Z,1016.52
2023-02-07T01:53:52.385Z,1016.42
2023-02-07T01:54:23.743Z,1016.42
2023-02-07T01:54:44.735Z,1016.32
2023-02-07T01:55:12.585Z,1016.32
2023-02-07T01:55:37.905Z,1016.32
2023-02-07T01:55:59.760Z,1016.32
2023-02-07T01:56:32.509Z,1016.32
2023-02-07T01:57:03.766Z,1016.42
2023-02-07T01:57:35.853Z,1016.42
2023-02-07T01:57:52.331Z,1016.22
2023-02-07T01:58:23.701Z,1016.22
2023-02-07T01:58:44.759Z,1016.22
2023-02-07T01:59:12.108Z,1016.22
2023-02-07T01:59:37.198Z,1016.32
2023-02-07T01:59:59.366Z,1016.32
2023-02-07T02:00:33.954Z,1016.32
2023-02-07T02:01:04.716Z,1016.12
2023-02-07T02:01:36.127Z,1016.12
2023-02-07T02:01:52.633Z,1016.22
2023-02-07T02:02:24.699Z,1016.22
2023-02-07T02:02:45.973Z,1016.32
2023-02-07T02:03:12.898Z,1016.32
2023-02-07T02:03:38.551Z,1016.22
2023-02-07T02:04:00.497Z,1016.22
2023-02-07T02:04:34.029Z,1016.22
2023-02-07T02:05:05.176Z,1016.42
2023-02-07T02:05:36.466Z,1016.42
2023-02-07T02:05:54.844Z,1016.02
2023-02-07T02:06:24.220Z,1016.02
2023-02-07T02:06:47.664Z,1016.12
2023-02-07T02:07:13.640Z,1016.12
2023-02-07T02:07:37.617Z,1016.02
2023-02-07T02:09:59.786Z,1016.12
2023-02-07T02:10:25.160Z,1016.12
2023-02-07T02:10:45.767Z,1016.02
2023-02-07T02:11:12.923Z,1016.02
2023-02-07T02:11:37.759Z,1015.92
2023-02-07T02:11:59.997Z,1015.92
2023-02-07T02:12:33.097Z,1015.92
2023-02-07T02:13:04.956Z,1016.02
2023-02-07T02:13:35.657Z,1016.02
2023-02-07T02:13:52.720Z,1015.92
2023-02-07T02:14:24.944Z,1015.92
2023-02-07T02:14:44.928Z,1016.02
2023-02-07T02:15:13.992Z,1016.02
2023-02-07T02:15:38.452Z,1016.02
2023-02-07T02:16:01.140Z,1016.02
2023-02-07T02:16:32.647Z,1016.02
2023-02-07T02:17:04.292Z,1016.12
2023-02-07T02:17:36.077Z,1016.12
2023-02-07T02:18:07.823Z,1015.81
2023-02-07T02:18:39.971Z,1015.81
2023-02-07T02:19:12.192Z,1015.92
2023-02-07T02:19:37.832Z,1015.92
2023-02-07T02:20:00.667Z,1015.92
2023-02-07T02:20:33.308Z,1015.92
2023-02-07T02:21:04.214Z,1016.02
2023-02-07T02:21:37.084Z,1016.02
2023-02-07T02:22:08.869Z,1016.02
2023-02-07T02:22:40.168Z,1016.02
2023-02-07T02:23:12.722Z,1016.12
2023-02-07T02:23:37.221Z,1016.22
2023-02-07T02:24:00.153Z,1016.22
2023-02-07T02:24:32.773Z,1016.22
2023-02-07T02:25:05.163Z,1015.92
2023-02-07T02:25:36.618Z,1015.92
2023-02-07T02:26:09.311Z,1016.12
2023-02-07T02:26:39.538Z,1016.12
2023-02-07T02:27:13.018Z,1016.12
2023-02-07T02:27:37.212Z,1016.12
2023-02-07T02:27:59.914Z,1016.12
2023-02-07T02:28:33.139Z,1016.12
2023-02-07T02:29:03.770Z,1016.22
2023-02-07T02:29:36.293Z,1016.22
2023-02-07T02:29:52.488Z,1015.92
2023-02-07T02:30:25.542Z,1015.92
2023-02-07T02:30:45.583Z,1015.92
2023-02-07T02:31:13.438Z,1015.92
2023-02-07T02:31:37.980Z,1015.92
2023-02-07T02:32:01.248Z,1015.92
2023-02-07T02:32:33.168Z,1015.92
2023-02-07T02:33:04.023Z,1015.92
2023-02-07T02:33:35.634Z,1015.92
2023-02-07T02:33:52.670Z,1016.12
2023-02-07T02:34:24.048Z,1016.12
2023-02-07T02:34:45.219Z,1015.92
2023-02-07T02:35:13.078Z,1015.92
2023-02-07T02:35:38.639Z,1016.02
2023-02-07T02:36:00.451Z,1016.02
2023-02-07T02:36:33.250Z,1016.02
2023-02-07T02:37:04.044Z,1015.81
2023-02-07T02:37:36.482Z,1015.81
2023-02-07T02:38:07.882Z,1016.12
2023-02-07T02:38:39.922Z,1016.12
2023-02-07T02:39:13.587Z,1015.92
2023-02-07T02:39:38.055Z,1016.02
2023-02-07T02:39:59.856Z,1016.02
2023-02-07T02:40:34.741Z,1016.02
2023-02-07T02:41:05.001Z,1015.92
2023-02-07T02:41:37.160Z,1015.92
2023-02-07T02:41:53.758Z,1016.02
2023-02-07T02:42:24.924Z,1016.02
2023-02-07T02:42:46.003Z,1016.12
2023-02-07T02:43:12.897Z,1016.12
2023-02-07T02:43:37.834Z,1015.92
2023-02-07T02:44:00.351Z,1015.92
2023-02-07T02:44:32.993Z,1015.92
2023-02-07T02:45:06.629Z,1016.22
2023-02-07T02:45:36.380Z,1016.22
2023-02-07T02:45:53.178Z,1015.92
2023-02-07T02:46:24.083Z,1015.92
2023-02-07T02:46:45.797Z,1016.12
2023-02-07T02:47:13.832Z,1016.12
2023-02-07T02:47:37.387Z,1016.12
2023-02-07T02:48:00.598Z,1016.12
2023-02-07T02:48:46.217Z,1016.12
2023-02-07T02:49:04.276Z,1015.81
2023-02-07T02:49:36.564Z,1015.81
2023-02-07T02:50:08.268Z,1015.92
2023-02-07T02:50:40.276Z,1015.92
2023-02-07T02:51:12.973Z,1015.92
2023-02-07T02:51:37.373Z,1015.71
2023-02-07T02:52:00.225Z,1015.71
2023-02-07T02:52:49.606Z,1015.71
2023-02-07T02:53:04.026Z,1015.71
2023-02-07T02:53:37.545Z,1015.71
2023-02-07T02:54:07.488Z,1015.61
2023-02-07T02:54:39.771Z,1015.61
2023-02-07T02:55:13.417Z,1015.81
2023-02-07T02:55:37.726Z,1015.81
2023-02-07T02:56:00.674Z,1015.81
2023-02-07T02:56:32.332Z,1015.81
2023-02-07T02:57:03.644Z,1015.61
2023-02-07T02:57:37.518Z,1015.61
2023-02-07T02:58:07.413Z,1015.81
2023-02-07T02:58:40.110Z,1015.81
2023-02-07T02:59:13.522Z,1015.81
2023-02-07T02:59:37.392Z,1015.92
2023-02-07T03:00:00.100Z,1015.92
2023-02-07T03:00:34.025Z,1015.92
2023-02-07T03:01:04.584Z,1015.71
2023-02-07T03:01:36.518Z,1015.71
2023-02-07T03:02:08.035Z,1015.92
2023-02-07T03:02:40.608Z,1015.92
2023-02-07T03:03:12.617Z,1015.92
2023-02-07T03:03:37.528Z,1016.12
2023-02-07T03:04:00.276Z,1016.12
2023-02-07T03:04:32.591Z,1016.12
2023-02-07T03:05:04.819Z,1016.02
2023-02-07T03:05:36.572Z,1016.02
2023-02-07T03:06:08.690Z,1015.71
2023-02-07T03:06:39.622Z,1015.71
2023-02-07T03:07:12.304Z,1015.81
2023-02-07T03:07:37.324Z,1015.81
2023-02-07T03:08:00.416Z,1015.81
2023-02-07T03:08:32.267Z,1015.81
2023-02-07T03:09:03.744Z,1015.92
2023-02-07T03:09:35.920Z,1015.92
2023-02-07T03:09:53.138Z,1015.92
2023-02-07T03:10:25.787Z,1015.92
2023-02-07T03:10:45.456Z,1015.71
2023-02-07T03:11:12.442Z,1015.71
2023-02-07T03:11:37.536Z,1015.71
2023-02-07T03:12:01.313Z,1015.71
2023-02-07T03:12:32.550Z,1015.71
2023-02-07T03:13:03.556Z,1015.92
2023-02-07T03:13:35.663Z,1015.92
2023-02-07T03:13:53.531Z,1015.81
2023-02-07T03:14:24.089Z,1015.81
2023-02-07T03:14:46.681Z,1015.92
2023-02-07T03:15:14.359Z,1015.92
2023-02-07T03:15:38.257Z,1015.92
2023-02-07T03:16:00.256Z,1015.92
2023-02-07T03:16:34.332Z,1015.92
2023-02-07T03:17:03.818Z,1015.81
2023-02-07T03:17:36.269Z,1015.81
2023-02-07T03:18:07.396Z,1015.92
2023-02-07T03:18:40.071Z,1015.92
2023-02-07T03:19:13.139Z,1015.92
2023-02-07T03:19:37.418Z,1015.81
2023-02-07T03:19:59.466Z,1015.81
2023-02-07T03:20:33.608Z,1015.81
2023-02-07T03:21:03.476Z,1016.12
2023-02-07T03:21:35.628Z,1016.12
2023-02-07T03:21:52.107Z,1016.12
2023-02-07T03:22:24.071Z,1016.12
2023-02-07T03:22:45.257Z,1015.92
2023-02-07T03:23:12.173Z,1015.92
2023-02-07T03:23:37.321Z,1016.02
2023-02-07T03:23:59.586Z,1016.02
2023-02-07T03:24:32.289Z,1016.02
2023-02-07T03:25:04.714Z,1015.92
2023-02-07T03:25:36.006Z,1015.92
2023-02-07T03:25:52.270Z,1015.92
2023-02-07T03:26:23.840Z,1015.92
2023-02-07T03:26:45.293Z,1015.92
2023-02-07T03:27:12.130Z,1015.92
2023-02-07T03:27:37.282Z,1016.02
2023-02-07T03:28:01.552Z,1016.02
2023-02-07T03:28:32.909Z,1016.02
2023-02-07T03:29:03.507Z,1015.92
2023-02-07T03:29:35.641Z,1015.92
2023-02-07T03:29:51.929Z,1016.02
2023-02-07T03:30:24.759Z,1016.02
2023-02-07T03:30:45.334Z,1016.12
2023-02-07T03:31:12.146Z,1016.12
2023-02-07T03:31:37.265Z,1016.12
2023-02-07T03:31:59.496Z,1016.12
2023-02-07T03:32:32.246Z,1016.12
2023-02-07T03:33:04.157Z,1016.02
2023-02-07T03:33:35.502Z,1016.02
2023-02-07T03:33:51.886Z,1016.02
2023-02-07T03:34:25.948Z,1016.02
2023-02-07T03:34:45.157Z,1016.02
2023-02-07T03:35:12.496Z,1016.02
2023-02-07T03:35:37.758Z,1016.02
2023-02-07T03:35:59.901Z,1016.02
2023-02-07T03:36:32.421Z,1016.02
2023-02-07T03:37:03.609Z,1016.12
2023-02-07T03:37:36.013Z,1016.12
2023-02-07T03:37:52.242Z,1015.92
2023-02-07T03:38:23.833Z,1015.92
2023-02-07T03:38:45.373Z,1016.12
2023-02-07T03:39:12.196Z,1016.12
2023-02-07T03:39:37.265Z,1015.92
2023-02-07T03:39:59.551Z,1015.92
2023-02-07T03:40:32.633Z,1015.92
2023-02-07T03:41:03.588Z,1016.12
2023-02-07T03:41:35.724Z,1016.12
2023-02-07T03:41:51.958Z,1015.92
2023-02-07T03:42:23.809Z,1015.92
2023-02-07T03:42:45.217Z,1016.02
2023-02-07T03:43:12.137Z,1016.02
2023-02-07T03:43:37.445Z,1016.12
2023-02-07T03:43:59.511Z,1016.12
2023-02-07T03:44:32.360Z,1016.12
2023-02-07T03:45:05.492Z,1016.12
2023-02-07T03:45:36.219Z,1016.12
2023-02-07T03:45:52.332Z,1016.02
2023-02-07T03:46:23.959Z,1016.02
2023-02-07T03:46:45.198Z,1016.02
2023-02-07T03:47:12.174Z,1016.02
2023-02-07T03:47:37.212Z,1015.81
2023-02-07T03:47:59.572Z,1015.81
2023-02-07T03:48:32.344Z,1015.81
2023-02-07T03:49:03.563Z,1015.81
2023-02-07T03:49:35.571Z,1015.81
2023-02-07T03:49:52.025Z,1015.81
2023-02-07T03:50:25.491Z,1015.81
2023-02-07T03:50:45.378Z,1015.92
2023-02-07T03:51:12.586Z,1015.92
2023-02-07T03:51:37.311Z,1016.02
2023-02-07T03:51:59.535Z,1016.02
2023-02-07T03:52:32.680Z,1016.02
2023-02-07T03:53:03.504Z,1015.92
2023-02-07T03:53:35.504Z,1015.92
2023-02-07T03:53:52.342Z,1015.92
2023-02-07T03:54:24.156Z,1015.92
2023-02-07T03:54:45.291Z,1016.12
2023-02-07T03:55:12.868Z,1016.12
2023-02-07T03:55:37.841Z,1016.22
2023-02-07T03:55:59.879Z,1016.22
2023-02-07T03:56:32.322Z,1016.22
2023-02-07T03:57:03.589Z,1016.12
2023-02-07T03:57:35.859Z,1016.12
2023-02-07T03:57:52.268Z,1016.02
2023-02-07T03:58:24.141Z,1016.02
2023-02-07T03:58:45.209Z,1015.92
2023-02-07T03:59:12.118Z,1015.92
2023-02-07T03:59:37.311Z,1016.22
2023-02-07T03:59:59.533Z,1016.22
2023-02-07T04:00:33.373Z,1016.22
2023-02-07T04:01:04.944Z,1016.02
2023-02-07T04:01:37.065Z,1016.02
2023-02-07T04:01:51.990Z,1016.02
2023-02-07T04:02:23.872Z,1016.02
2023-02-07T04:02:45.567Z,1016.22
2023-02-07T04:03:12.123Z,1016.22
2023-02-07T04:03:37.374Z,1016.02
2023-02-07T04:03:59.594Z,1016.02
2023-02-07T04:04:32.228Z,1016.02
2023-02-07T04:05:04.762Z,1016.12
2023-02-07T04:05:35.614Z,1016.12
2023-02-07T04:05:52.298Z,1016.22
2023-02-07T04:06:24.014Z,1016.22
2023-02-07T04:06:45.423Z,1015.92
2023-02-07T04:07:12.220Z,1015.92
2023-02-07T04:07:37.295Z,1016.22
2023-02-07T04:07:59.542Z,1016.22
2023-02-07T04:08:32.252Z,1016.22
2023-02-07T04:09:03.552Z,1016.02
2023-02-07T04:09:35.443Z,1016.02
2023-02-07T04:09:51.948Z,1016.22
2023-02-07T04:10:25.744Z,1016.22
2023-02-07T04:10:45.236Z,1015.92
2023-02-07T04:11:12.240Z,1015.92
2023-02-07T04:11:37.267Z,1016.02
2023-02-07T04:11:59.546Z,1016.02
2023-02-07T04:12:32.131Z,1016.02
2023-02-07T04:13:03.542Z,1016.22
2023-02-07T04:13:35.535Z,1016.22
2023-02-07T04:13:51.975Z,1015.92
2023-02-07T04:14:23.900Z,1015.92
2023-02-07T04:14:45.490Z,1015.92
2023-02-07T04:15:13.295Z,1015.92
2023-02-07T04:15:37.654Z,1016.12
2023-02-07T04:16:00.025Z,1016.12
2023-02-07T04:16:32.188Z,1016.12
2023-02-07T04:17:03.696Z,1016.12
2023-02-07T04:17:35.728Z,1016.12
2023-02-07T04:17:51.970Z,1016.12
2023-02-07T04:18:23.987Z,1016.12
2023-02-07T04:18:45.347Z,1016.32
2023-02-07T04:19:12.128Z,1016.32
2023-02-07T04:19:37.243Z,1016.12
2023-02-07T04:19:59.642Z,1016.12
2023-02-07T04:20:32.907Z,1016.12
2023-02-07T04:21:03.627Z,1016.22
2023-02-07T04:21:35.526Z,1016.22
2023-02-07T04:21:52.123Z,1016.32
2023-02-07T04:22:24.093Z,1016.32
2023-02-07T04:22:45.239Z,1016.12
2023-02-07T04:23:12.140Z,1016.12
2023-02-07T04:23:37.388Z,1016.22
2023-02-07T04:23:59.592Z,1016.22
2023-02-07T04:24:32.297Z,1016.22
2023-02-07T04:25:05.084Z,1016.32
2023-02-07T04:25:36.918Z,1016.32
2023-02-07T04:26:07.640Z,1016.02
2023-02-07T04:26:39.582Z,1016.02
2023-02-07T04:27:12.218Z,1016.12
2023-02-07T04:27:37.576Z,1016.22
2023-02-07T04:27:59.627Z,1016.22
2023-02-07T04:28:32.150Z,1016.22
2023-02-07T04:29:03.575Z,1016.22
2023-02-07T04:29:35.578Z,1016.22
2023-02-07T04:29:52.003Z,1016.32
2023-02-07T04:30:25.103Z,1016.32
2023-02-07T04:30:45.580Z,1016.22
2023-02-07T04:31:12.192Z,1016.22
2023-02-07T04:31:37.714Z,1016.32
2023-02-07T04:31:59.649Z,1016.32
2023-02-07T04:32:32.230Z,1016.32
2023-02-07T04:33:03.531Z,1016.22
2023-02-07T04:33:35.533Z,1016.22
2023-02-07T04:33:52.074Z,1016.32
2023-02-07T04:34:23.864Z,1016.32
2023-02-07T04:34:45.355Z,1016.42
2023-02-07T04:35:16.079Z,1016.42
2023-02-07T04:35:37.579Z,1016.22
2023-02-07T04:36:00.106Z,1016.22
2023-02-07T04:36:32.211Z,1016.22
2023-02-07T04:37:03.817Z,1016.12
2023-02-07T04:37:35.669Z,1016.12
2023-02-07T04:37:52.018Z,1016.02
2023-02-07T04:38:23.942Z,1016.02
2023-02-07T04:38:45.352Z,1016.02
2023-02-07T04:39:12.160Z,1016.02
2023-02-07T04:39:37.311Z,1016.02
2023-02-07T04:39:59.547Z,1016.02
2023-02-07T04:40:32.548Z,1016.02
2023-02-07T04:41:03.600Z,1015.92
2023-02-07T04:41:35.615Z,1015.92
2023-02-07T04:41:52.269Z,1016.12
2023-02-07T04:42:23.957Z,1016.12
2023-02-07T04:42:45.465Z,1016.22
2023-02-07T04:43:12.296Z,1016.22
2023-02-07T04:43:37.262Z,1016.22
2023-02-07T04:43:59.498Z,1016.22
2023-02-07T04:44:32.169Z,1016.22
2023-02-07T04:45:05.678Z,1016.12
2023-02-07T04:45:36.012Z,1016.12
2023-02-07T04:45:52.884Z,1016.22
2023-02-07T04:46:23.970Z,1016.22
2023-02-07T04:46:45.719Z,1016.12
2023-02-07T04:47:12.308Z,1016.12
2023-02-07T04:47:37.254Z,1016.02
2023-02-07T04:47:59.740Z,1016.02
2023-02-07T04:48:32.208Z,1016.02
2023-02-07T04:49:03.578Z,1016.12
2023-02-07T04:49:35.622Z,1016.12
2023-02-07T04:49:52.099Z,1016.12
2023-02-07T04:50:24.281Z,1016.12
2023-02-07T04:50:45.279Z,1016.02
2023-02-07T04:51:12.191Z,1016.02
2023-02-07T04:51:37.309Z,1016.12
2023-02-07T04:51:59.602Z,1016.12
2023-02-07T04:52:32.151Z,1016.12
2023-02-07T04:53:03.582Z,1016.12
2023-02-07T04:53:36.089Z,1016.12
2023-02-07T04:54:07.798Z,1016.22
2023-02-07T04:54:39.539Z,1016.22
2023-02-07T04:55:18.143Z,1015.92
2023-02-07T04:55:38.063Z,1016.12
2023-02-07T04:55:59.996Z,1016.12
2023-02-07T04:56:32.267Z,1016.12
2023-02-07T04:57:03.598Z,1016.12
2023-02-07T04:57:35.557Z,1016.12
2023-02-07T04:57:52.067Z,1016.32
2023-02-07T04:58:24.020Z,1016.32
2023-02-07T04:58:45.340Z,1016.32
2023-02-07T04:59:12.196Z,1016.32
2023-02-07T04:59:37.573Z,1016.12
2023-02-07T04:59:59.728Z,1016.12
2023-02-07T05:00:33.183Z,1016.12
2023-02-07T05:01:04.525Z,1016.42
2023-02-07T05:01:35.535Z,1016.42
2023-02-07T05:01:52.184Z,1016.32
2023-02-07T05:02:24.008Z,1016.32
2023-02-07T05:02:45.400Z,1016.12
2023-02-07T05:03:12.291Z,1016.12
2023-02-07T05:03:37.451Z,1016.22
2023-02-07T05:03:59.776Z,1016.22
2023-02-07T05:04:32.446Z,1016.22
2023-02-07T05:05:04.904Z,1016.22
2023-02-07T05:05:35.828Z,1016.22
2023-02-07T05:05:53.044Z,1016.22
2023-02-07T05:06:24.195Z,1016.22
2023-02-07T05:06:45.341Z,1016.42
2023-02-07T05:07:12.410Z,1016.42
2023-02-07T05:07:37.318Z,1016.12
2023-02-07T05:07:59.716Z,1016.12
2023-02-07T05:08:32.199Z,1016.12
2023-02-07T05:09:03.637Z,1016.32
2023-02-07T05:09:35.620Z,1016.32
2023-02-07T05:09:52.048Z,1016.52
2023-02-07T05:10:24.383Z,1016.52
2023-02-07T05:10:45.341Z,1016.32
2023-02-07T05:11:12.168Z,1016.32
2023-02-07T05:11:37.265Z,1016.32
2023-02-07T05:11:59.656Z,1016.32
2023-02-07T05:12:32.158Z,1016.32
2023-02-07T05:13:03.726Z,1016.42
2023-02-07T05:13:35.552Z,1016.42
2023-02-07T05:13:52.131Z,1016.32
2023-02-07T05:14:23.964Z,1016.32
2023-02-07T05:14:45.389Z,1016.12
2023-02-07T05:15:14.970Z,1016.12
2023-02-07T05:15:37.787Z,1016.32
2023-02-07T05:16:06.270Z,1016.32
2023-02-07T05:16:32.223Z,1016.32
2023-02-07T05:17:04.029Z,1016.12
2023-02-07T05:17:35.651Z,1016.12
2023-02-07T05:17:52.159Z,1016.32
2023-02-07T05:18:23.916Z,1016.32
2023-02-07T05:18:45.351Z,1016.22
2023-02-07T05:19:12.284Z,1016.22
2023-02-07T05:19:37.451Z,1016.32
2023-02-07T05:20:00.908Z,1016.32
2023-02-07T05:20:32.630Z,1016.32
2023-02-07T05:21:03.635Z,1016.32
2023-02-07T05:21:35.643Z,1016.32
2023-02-07T05:21:52.169Z,1016.22
2023-02-07T05:22:24.105Z,1016.22
2023-02-07T05:22:45.476Z,1016.52
2023-02-07T05:23:12.222Z,1016.52
2023-02-07T05:23:37.332Z,1016.63
2023-02-07T05:23:59.874Z,1016.63
2023-02-07T05:24:32.156Z,1016.63
2023-02-07T05:25:05.086Z,1016.42
2023-02-07T05:25:36.342Z,1016.42
2023-02-07T05:26:07.604Z,1016.63
2023-02-07T05:26:40.493Z,1016.63
2023-02-07T05:27:12.211Z,1016.52
2023-02-07T05:27:37.290Z,1016.52
2023-02-07T05:27:59.977Z,1016.52
2023-02-07T05:28:32.154Z,1016.52
2023-02-07T05:29:04.212Z,1016.42
2023-02-07T05:29:35.592Z,1016.42
2023-02-07T05:29:52.125Z,1016.52
2023-02-07T05:30:25.098Z,1016.52
2023-02-07T05:30:45.595Z,1016.52
2023-02-07T05:31:12.446Z,1016.52
2023-02-07T05:31:37.575Z,1016.63
2023-02-07T05:31:59.723Z,1016.63
2023-02-07T05:32:32.300Z,1016.63
2023-02-07T05:33:03.728Z,1016.63
2023-02-07T05:33:35.641Z,1016.63
2023-02-07T05:33:52.223Z,1016.42
2023-02-07T05:34:24.068Z,1016.42
2023-02-07T05:34:45.570Z,1016.63
2023-02-07T05:35:13.188Z,1016.63
2023-02-07T05:35:37.863Z,1016.52
2023-02-07T05:35:59.994Z,1016.52
2023-02-07T05:36:32.311Z,1016.52
2023-02-07T05:37:03.683Z,1016.52
2023-02-07T05:37:37.366Z,1016.52